sensor_id;sensor_type;location;lat;lon;timestamp;temperature;humidity
1337;DHT22;662;48.814;9.318;2022-07-29T00:01:21;23.00;60.80
1337;DHT22;662;48.814;9.318;2022-07-29T00:03:47;23.00;60.80
1337;DHT22;662;48.814;9.318;2022-07-29T00:06:13;22.90;61.00
1337;DHT22;662;48.814;9.318;2022-07-29T00:08:39;22.90;61.10
1337;DHT22;662;48.814;9.318;2022-07-29T00:11:05;22.90;61.30
1337;DHT22;662;48.814;9.318;2022-07-29T00:13:30;22.80;61.20
1337;DHT22;662;48.814;9.318;2022-07-29T00:15:56;22.80;61.30
1337;DHT22;662;48.814;9.318;2022-07-29T00:18:22;22.80;61.50
1337;DHT22;662;48.814;9.318;2022-07-29T00:20:47;22.80;61.60
1337;DHT22;662;48.814;9.318;2022-07-29T00:23:13;22.80;61.70
1337;DHT22;662;48.814;9.318;2022-07-29T00:25:38;22.80;61.60
1337;DHT22;662;48.814;9.318;2022-07-29T00:28:04;22.80;61.80
1337;DHT22;662;48.814;9.318;2022-07-29T00:30:30;22.70;61.90
1337;DHT22;662;48.814;9.318;2022-07-29T00:32:55;22.70;62.10
1337;DHT22;662;48.814;9.318;2022-07-29T00:35:21;22.70;62.40
1337;DHT22;662;48.814;9.318;2022-07-29T00:38:05;22.60;62.40
1337;DHT22;662;48.814;9.318;2022-07-29T00:40:30;22.60;62.80
1337;DHT22;662;48.814;9.318;2022-07-29T00:42:56;22.60;62.60
1337;DHT22;662;48.814;9.318;2022-07-29T00:45:22;22.60;63.50
1337;DHT22;662;48.814;9.318;2022-07-29T00:47:48;22.60;62.80
1337;DHT22;662;48.814;9.318;2022-07-29T00:50:14;22.60;63.00
1337;DHT22;662;48.814;9.318;2022-07-29T00:52:41;22.50;62.90
1337;DHT22;662;48.814;9.318;2022-07-29T00:55:10;22.50;63.00
1337;DHT22;662;48.814;9.318;2022-07-29T00:57:36;22.50;63.30
1337;DHT22;662;48.814;9.318;2022-07-29T01:00:07;22.40;63.40
1337;DHT22;662;48.814;9.318;2022-07-29T01:02:33;22.40;63.40
1337;DHT22;662;48.814;9.318;2022-07-29T01:05:00;22.50;63.60
1337;DHT22;662;48.814;9.318;2022-07-29T01:07:27;22.50;63.80
1337;DHT22;662;48.814;9.318;2022-07-29T01:09:54;22.50;63.60
1337;DHT22;662;48.814;9.318;2022-07-29T01:12:24;22.40;63.70
1337;DHT22;662;48.814;9.318;2022-07-29T01:14:51;22.40;63.90
1337;DHT22;662;48.814;9.318;2022-07-29T01:17:21;22.40;63.90
1337;DHT22;662;48.814;9.318;2022-07-29T01:19:58;22.40;64.10
1337;DHT22;662;48.814;9.318;2022-07-29T01:22:53;22.40;64.10
1337;DHT22;662;48.814;9.318;2022-07-29T01:26:00;22.40;64.10
1337;DHT22;662;48.814;9.318;2022-07-29T01:31:43;22.40;64.10
1337;DHT22;662;48.814;9.318;2022-07-29T01:34:14;22.40;64.10
1337;DHT22;662;48.814;9.318;2022-07-29T01:36:55;22.40;64.10
1337;DHT22;662;48.814;9.318;2022-07-29T01:39:32;22.40;64.10
1337;DHT22;662;48.814;9.318;2022-07-29T01:44:48;22.30;64.10
1337;DHT22;662;48.814;9.318;2022-07-29T01:47:20;22.30;64.20
1337;DHT22;662;48.814;9.318;2022-07-29T01:49:51;22.30;64.30
1337;DHT22;662;48.814;9.318;2022-07-29T01:52:31;22.20;64.40
1337;DHT22;662;48.814;9.318;2022-07-29T01:55:03;22.20;64.50
1337;DHT22;662;48.814;9.318;2022-07-29T01:57:31;22.20;64.60
1337;DHT22;662;48.814;9.318;2022-07-29T01:59:59;22.20;64.60
1337;DHT22;662;48.814;9.318;2022-07-29T02:02:27;22.20;64.60
1337;DHT22;662;48.814;9.318;2022-07-29T02:04:54;22.20;64.80
1337;DHT22;662;48.814;9.318;2022-07-29T02:07:23;22.10;64.80
1337;DHT22;662;48.814;9.318;2022-07-29T02:09:50;22.10;65.00
1337;DHT22;662;48.814;9.318;2022-07-29T02:12:18;22.10;65.10
1337;DHT22;662;48.814;9.318;2022-07-29T02:14:49;22.00;65.20
1337;DHT22;662;48.814;9.318;2022-07-29T02:17:21;22.00;65.20
1337;DHT22;662;48.814;9.318;2022-07-29T02:19:47;22.00;65.20
1337;DHT22;662;48.814;9.318;2022-07-29T02:22:14;22.00;65.30
1337;DHT22;662;48.814;9.318;2022-07-29T02:24:41;22.00;65.50
1337;DHT22;662;48.814;9.318;2022-07-29T02:27:08;21.90;65.40
1337;DHT22;662;48.814;9.318;2022-07-29T02:29:35;21.90;65.70
1337;DHT22;662;48.814;9.318;2022-07-29T02:32:03;21.90;65.90
1337;DHT22;662;48.814;9.318;2022-07-29T02:34:30;21.90;66.00
1337;DHT22;662;48.814;9.318;2022-07-29T02:36:56;21.90;66.80
1337;DHT22;662;48.814;9.318;2022-07-29T02:39:23;21.90;66.10
1337;DHT22;662;48.814;9.318;2022-07-29T02:41:57;21.80;66.10
1337;DHT22;662;48.814;9.318;2022-07-29T02:44:25;21.80;66.20
1337;DHT22;662;48.814;9.318;2022-07-29T02:47:04;21.80;66.20
1337;DHT22;662;48.814;9.318;2022-07-29T02:49:43;21.80;66.20
1337;DHT22;662;48.814;9.318;2022-07-29T02:52:19;21.70;66.20
1337;DHT22;662;48.814;9.318;2022-07-29T02:54:54;21.70;66.10
1337;DHT22;662;48.814;9.318;2022-07-29T02:59:54;21.70;66.30
1337;DHT22;662;48.814;9.318;2022-07-29T03:02:22;21.60;66.20
1337;DHT22;662;48.814;9.318;2022-07-29T03:04:50;21.60;66.20
1337;DHT22;662;48.814;9.318;2022-07-29T03:07:18;21.60;66.40
1337;DHT22;662;48.814;9.318;2022-07-29T03:09:46;21.60;66.70
1337;DHT22;662;48.814;9.318;2022-07-29T03:12:12;21.60;66.80
1337;DHT22;662;48.814;9.318;2022-07-29T03:14:39;21.50;66.80
1337;DHT22;662;48.814;9.318;2022-07-29T03:17:05;21.50;66.80
1337;DHT22;662;48.814;9.318;2022-07-29T03:19:31;21.50;67.00
1337;DHT22;662;48.814;9.318;2022-07-29T03:21:57;21.50;67.20
1337;DHT22;662;48.814;9.318;2022-07-29T03:24:35;21.40;67.20
1337;DHT22;662;48.814;9.318;2022-07-29T03:27:02;21.40;67.40
1337;DHT22;662;48.814;9.318;2022-07-29T03:29:28;21.40;67.40
1337;DHT22;662;48.814;9.318;2022-07-29T03:31:54;21.40;67.50
1337;DHT22;662;48.814;9.318;2022-07-29T03:34:20;21.30;67.40
1337;DHT22;662;48.814;9.318;2022-07-29T03:36:47;21.40;67.60
1337;DHT22;662;48.814;9.318;2022-07-29T03:39:17;21.30;67.60
1337;DHT22;662;48.814;9.318;2022-07-29T03:41:44;21.30;67.60
1337;DHT22;662;48.814;9.318;2022-07-29T03:44:12;21.30;67.70
1337;DHT22;662;48.814;9.318;2022-07-29T03:46:39;21.30;67.70
1337;DHT22;662;48.814;9.318;2022-07-29T03:49:08;21.30;67.80
1337;DHT22;662;48.814;9.318;2022-07-29T03:51:35;21.30;67.80
1337;DHT22;662;48.814;9.318;2022-07-29T03:54:02;21.20;67.70
1337;DHT22;662;48.814;9.318;2022-07-29T03:56:28;21.30;67.90
1337;DHT22;662;48.814;9.318;2022-07-29T03:58:55;21.30;68.00
1337;DHT22;662;48.814;9.318;2022-07-29T04:01:21;21.20;67.90
1337;DHT22;662;48.814;9.318;2022-07-29T04:03:48;21.20;68.10
1337;DHT22;662;48.814;9.318;2022-07-29T04:06:13;21.20;68.10
1337;DHT22;662;48.814;9.318;2022-07-29T04:08:39;21.20;68.10
1337;DHT22;662;48.814;9.318;2022-07-29T04:11:05;21.20;68.20
1337;DHT22;662;48.814;9.318;2022-07-29T04:13:31;21.20;68.50
1337;DHT22;662;48.814;9.318;2022-07-29T04:15:57;21.20;68.50
1337;DHT22;662;48.814;9.318;2022-07-29T04:18:23;21.20;68.50
1337;DHT22;662;48.814;9.318;2022-07-29T04:20:49;21.20;68.50
1337;DHT22;662;48.814;9.318;2022-07-29T04:23:15;21.20;68.50
1337;DHT22;662;48.814;9.318;2022-07-29T04:25:42;21.20;68.50
1337;DHT22;662;48.814;9.318;2022-07-29T04:28:09;21.20;68.50
1337;DHT22;662;48.814;9.318;2022-07-29T04:30:36;21.20;68.20
1337;DHT22;662;48.814;9.318;2022-07-29T04:33:05;21.20;68.30
1337;DHT22;662;48.814;9.318;2022-07-29T04:35:37;21.20;68.20
1337;DHT22;662;48.814;9.318;2022-07-29T04:38:04;21.20;68.30
1337;DHT22;662;48.814;9.318;2022-07-29T04:40:29;21.20;68.30
1337;DHT22;662;48.814;9.318;2022-07-29T04:42:55;21.20;68.10
1337;DHT22;662;48.814;9.318;2022-07-29T04:45:21;21.20;68.00
1337;DHT22;662;48.814;9.318;2022-07-29T04:47:47;21.20;67.90
1337;DHT22;662;48.814;9.318;2022-07-29T04:50:13;21.30;67.90
1337;DHT22;662;48.814;9.318;2022-07-29T04:52:38;21.30;67.80
1337;DHT22;662;48.814;9.318;2022-07-29T04:55:05;21.30;67.80
1337;DHT22;662;48.814;9.318;2022-07-29T04:57:37;21.30;67.70
1337;DHT22;662;48.814;9.318;2022-07-29T05:00:04;21.30;67.70
1337;DHT22;662;48.814;9.318;2022-07-29T05:02:30;21.40;67.70
1337;DHT22;662;48.814;9.318;2022-07-29T05:04:56;21.40;67.80
1337;DHT22;662;48.814;9.318;2022-07-29T05:07:21;21.40;67.90
1337;DHT22;662;48.814;9.318;2022-07-29T05:09:47;21.40;67.90
1337;DHT22;662;48.814;9.318;2022-07-29T05:12:13;21.40;67.80
1337;DHT22;662;48.814;9.318;2022-07-29T05:14:38;21.40;67.80
1337;DHT22;662;48.814;9.318;2022-07-29T05:17:09;21.40;67.90
1337;DHT22;662;48.814;9.318;2022-07-29T05:19:35;21.40;67.80
1337;DHT22;662;48.814;9.318;2022-07-29T05:22:00;21.50;68.00
1337;DHT22;662;48.814;9.318;2022-07-29T05:24:26;21.50;68.10
1337;DHT22;662;48.814;9.318;2022-07-29T05:26:52;21.50;68.00
1337;DHT22;662;48.814;9.318;2022-07-29T05:29:18;21.50;68.00
1337;DHT22;662;48.814;9.318;2022-07-29T05:31:43;21.60;68.00
1337;DHT22;662;48.814;9.318;2022-07-29T05:34:09;21.60;67.80
1337;DHT22;662;48.814;9.318;2022-07-29T05:36:34;21.70;67.70
1337;DHT22;662;48.814;9.318;2022-07-29T05:39:00;21.70;68.00
1337;DHT22;662;48.814;9.318;2022-07-29T05:41:26;21.70;68.00
1337;DHT22;662;48.814;9.318;2022-07-29T05:43:51;21.70;68.10
1337;DHT22;662;48.814;9.318;2022-07-29T05:46:17;21.80;68.50
1337;DHT22;662;48.814;9.318;2022-07-29T05:48:43;21.80;68.60
1337;DHT22;662;48.814;9.318;2022-07-29T05:51:09;21.90;68.50
1337;DHT22;662;48.814;9.318;2022-07-29T05:53:37;22.00;68.50
1337;DHT22;662;48.814;9.318;2022-07-29T05:56:07;22.10;68.50
1337;DHT22;662;48.814;9.318;2022-07-29T05:58:41;22.10;68.50
1337;DHT22;662;48.814;9.318;2022-07-29T06:01:07;22.10;68.30
1337;DHT22;662;48.814;9.318;2022-07-29T06:03:53;22.20;68.10
1337;DHT22;662;48.814;9.318;2022-07-29T06:06:33;22.20;67.90
1337;DHT22;662;48.814;9.318;2022-07-29T06:09:02;22.30;67.50
1337;DHT22;662;48.814;9.318;2022-07-29T06:11:33;22.30;67.30
1337;DHT22;662;48.814;9.318;2022-07-29T06:14:09;22.40;67.20
1337;DHT22;662;48.814;9.318;2022-07-29T06:16:39;22.50;67.00
1337;DHT22;662;48.814;9.318;2022-07-29T06:19:34;22.50;66.70
1337;DHT22;662;48.814;9.318;2022-07-29T06:22:23;22.60;66.50
1337;DHT22;662;48.814;9.318;2022-07-29T06:24:57;22.70;66.50
1337;DHT22;662;48.814;9.318;2022-07-29T06:27:38;22.80;66.40
1337;DHT22;662;48.814;9.318;2022-07-29T06:30:10;22.90;66.20
1337;DHT22;662;48.814;9.318;2022-07-29T06:36:00;23.10;65.60
1337;DHT22;662;48.814;9.318;2022-07-29T06:38:56;23.20;65.00
1337;DHT22;662;48.814;9.318;2022-07-29T06:41:22;23.40;64.90
1337;DHT22;662;48.814;9.318;2022-07-29T06:43:50;23.50;64.50
1337;DHT22;662;48.814;9.318;2022-07-29T06:46:20;23.60;64.40
1337;DHT22;662;48.814;9.318;2022-07-29T06:48:59;23.70;63.90
1337;DHT22;662;48.814;9.318;2022-07-29T06:51:29;23.80;63.50
1337;DHT22;662;48.814;9.318;2022-07-29T06:54:08;23.90;63.00
1337;DHT22;662;48.814;9.318;2022-07-29T06:56:45;24.00;62.20
1337;DHT22;662;48.814;9.318;2022-07-29T06:59:47;24.10;62.20
1337;DHT22;662;48.814;9.318;2022-07-29T07:02:21;24.20;62.30
1337;DHT22;662;48.814;9.318;2022-07-29T07:04:53;24.20;61.70
1337;DHT22;662;48.814;9.318;2022-07-29T07:07:30;24.20;61.30
1337;DHT22;662;48.814;9.318;2022-07-29T07:09:56;24.30;61.30
1337;DHT22;662;48.814;9.318;2022-07-29T07:12:25;24.40;61.10
1337;DHT22;662;48.814;9.318;2022-07-29T07:14:57;24.40;60.60
1337;DHT22;662;48.814;9.318;2022-07-29T07:21:03;24.70;60.20
1337;DHT22;662;48.814;9.318;2022-07-29T07:23:32;24.80;59.80
1337;DHT22;662;48.814;9.318;2022-07-29T07:26:03;24.80;59.60
1337;DHT22;662;48.814;9.318;2022-07-29T07:28:46;24.90;59.70
1337;DHT22;662;48.814;9.318;2022-07-29T07:31:26;25.00;59.60
1337;DHT22;662;48.814;9.318;2022-07-29T07:33:57;25.10;59.50
1337;DHT22;662;48.814;9.318;2022-07-29T07:36:44;25.20;59.30
1337;DHT22;662;48.814;9.318;2022-07-29T07:39:12;25.20;59.00
1337;DHT22;662;48.814;9.318;2022-07-29T07:41:43;25.30;58.70
1337;DHT22;662;48.814;9.318;2022-07-29T07:44:11;25.40;58.60
1337;DHT22;662;48.814;9.318;2022-07-29T07:46:36;25.30;58.40
1337;DHT22;662;48.814;9.318;2022-07-29T07:49:02;25.40;58.20
1337;DHT22;662;48.814;9.318;2022-07-29T07:51:28;25.40;58.10
1337;DHT22;662;48.814;9.318;2022-07-29T07:53:53;25.40;58.70
1337;DHT22;662;48.814;9.318;2022-07-29T07:56:19;25.40;58.10
1337;DHT22;662;48.814;9.318;2022-07-29T07:58:44;25.50;58.10
1337;DHT22;662;48.814;9.318;2022-07-29T08:01:10;25.60;58.00
1337;DHT22;662;48.814;9.318;2022-07-29T08:03:36;25.70;57.80
1337;DHT22;662;48.814;9.318;2022-07-29T08:06:03;25.80;57.50
1337;DHT22;662;48.814;9.318;2022-07-29T08:08:29;25.90;57.30
1337;DHT22;662;48.814;9.318;2022-07-29T08:10:55;26.00;56.70
1337;DHT22;662;48.814;9.318;2022-07-29T08:13:25;26.10;56.50
1337;DHT22;662;48.814;9.318;2022-07-29T08:15:54;26.20;56.10
1337;DHT22;662;48.814;9.318;2022-07-29T08:18:23;26.20;56.10
1337;DHT22;662;48.814;9.318;2022-07-29T08:20:49;26.20;55.80
1337;DHT22;662;48.814;9.318;2022-07-29T08:23:15;26.30;55.80
1337;DHT22;662;48.814;9.318;2022-07-29T08:25:41;26.30;56.10
1337;DHT22;662;48.814;9.318;2022-07-29T08:28:07;26.30;56.20
1337;DHT22;662;48.814;9.318;2022-07-29T08:30:34;26.40;56.20
1337;DHT22;662;48.814;9.318;2022-07-29T08:33:00;26.50;56.00
1337;DHT22;662;48.814;9.318;2022-07-29T08:35:26;26.60;55.50
1337;DHT22;662;48.814;9.318;2022-07-29T08:37:53;26.70;54.90
1337;DHT22;662;48.814;9.318;2022-07-29T08:40:21;26.80;54.80
1337;DHT22;662;48.814;9.318;2022-07-29T08:42:49;26.90;54.60
1337;DHT22;662;48.814;9.318;2022-07-29T08:45:15;27.00;54.20
1337;DHT22;662;48.814;9.318;2022-07-29T08:47:41;27.10;53.90
1337;DHT22;662;48.814;9.318;2022-07-29T08:50:09;27.20;53.60
1337;DHT22;662;48.814;9.318;2022-07-29T08:52:40;27.20;53.30
1337;DHT22;662;48.814;9.318;2022-07-29T08:55:08;27.30;53.20
1337;DHT22;662;48.814;9.318;2022-07-29T08:57:34;27.30;53.30
1337;DHT22;662;48.814;9.318;2022-07-29T09:00:03;27.40;52.90
1337;DHT22;662;48.814;9.318;2022-07-29T09:02:33;27.40;52.20
1337;DHT22;662;48.814;9.318;2022-07-29T09:05:01;27.40;52.30
1337;DHT22;662;48.814;9.318;2022-07-29T09:07:27;27.50;52.30
1337;DHT22;662;48.814;9.318;2022-07-29T09:09:53;27.60;52.40
1337;DHT22;662;48.814;9.318;2022-07-29T09:12:19;27.70;52.50
1337;DHT22;662;48.814;9.318;2022-07-29T09:14:47;27.80;52.30
1337;DHT22;662;48.814;9.318;2022-07-29T09:17:14;27.80;49.80
1337;DHT22;662;48.814;9.318;2022-07-29T09:19:42;27.80;50.20
1337;DHT22;662;48.814;9.318;2022-07-29T09:22:07;27.80;50.10
1337;DHT22;662;48.814;9.318;2022-07-29T09:27:09;27.90;50.90
1337;DHT22;662;48.814;9.318;2022-07-29T09:29:35;28.00;50.60
1337;DHT22;662;48.814;9.318;2022-07-29T09:32:05;28.20;50.50
1337;DHT22;662;48.814;9.318;2022-07-29T09:34:31;28.40;50.50
1337;DHT22;662;48.814;9.318;2022-07-29T09:36:57;28.60;49.80
1337;DHT22;662;48.814;9.318;2022-07-29T09:42:04;29.00;48.90
1337;DHT22;662;48.814;9.318;2022-07-29T09:44:45;29.10;47.30
1337;DHT22;662;48.814;9.318;2022-07-29T09:47:11;29.30;47.80
1337;DHT22;662;48.814;9.318;2022-07-29T09:52:17;29.50;45.70
1337;DHT22;662;48.814;9.318;2022-07-29T09:54:43;29.60;46.00
1337;DHT22;662;48.814;9.318;2022-07-29T09:57:21;29.90;46.70
1337;DHT22;662;48.814;9.318;2022-07-29T10:00:03;30.40;45.50
1337;DHT22;662;48.814;9.318;2022-07-29T10:02:31;31.40;43.60
1337;DHT22;662;48.814;9.318;2022-07-29T10:04:58;32.20;42.10
1337;DHT22;662;48.814;9.318;2022-07-29T10:07:25;32.90;40.30
1337;DHT22;662;48.814;9.318;2022-07-29T10:09:57;33.60;39.30
1337;DHT22;662;48.814;9.318;2022-07-29T10:12:23;34.20;37.70
1337;DHT22;662;48.814;9.318;2022-07-29T10:14:50;34.60;36.60
1337;DHT22;662;48.814;9.318;2022-07-29T10:17:16;34.70;36.10
1337;DHT22;662;48.814;9.318;2022-07-29T10:19:42;34.80;36.30
1337;DHT22;662;48.814;9.318;2022-07-29T10:22:10;35.00;35.20
1337;DHT22;662;48.814;9.318;2022-07-29T10:24:37;35.30;34.30
1337;DHT22;662;48.814;9.318;2022-07-29T10:27:05;35.30;33.40
1337;DHT22;662;48.814;9.318;2022-07-29T10:29:31;35.10;32.20
1337;DHT22;662;48.814;9.318;2022-07-29T10:43:33;34.80;33.60
1337;DHT22;662;48.814;9.318;2022-07-29T10:46:02;34.30;34.00
1337;DHT22;662;48.814;9.318;2022-07-29T10:48:28;33.80;34.40
1337;DHT22;662;48.814;9.318;2022-07-29T10:51:00;33.30;35.00
1337;DHT22;662;48.814;9.318;2022-07-29T10:53:53;32.80;35.50
1337;DHT22;662;48.814;9.318;2022-07-29T10:56:27;32.30;36.40
1337;DHT22;662;48.814;9.318;2022-07-29T11:01:43;31.40;37.90
1337;DHT22;662;48.814;9.318;2022-07-29T11:04:09;31.00;38.50
1337;DHT22;662;48.814;9.318;2022-07-29T11:09:25;30.40;40.50
1337;DHT22;662;48.814;9.318;2022-07-29T11:11:51;30.00;41.50
1337;DHT22;662;48.814;9.318;2022-07-29T11:14:19;29.70;43.00
1337;DHT22;662;48.814;9.318;2022-07-29T11:17:05;29.40;44.90
1337;DHT22;662;48.814;9.318;2022-07-29T11:19:33;29.10;46.80
1337;DHT22;662;48.814;9.318;2022-07-29T11:21:58;28.80;48.20
1337;DHT22;662;48.814;9.318;2022-07-29T11:24:27;28.50;50.30
1337;DHT22;662;48.814;9.318;2022-07-29T11:27:13;28.10;51.00
1337;DHT22;662;48.814;9.318;2022-07-29T11:29:56;27.50;51.60
1337;DHT22;662;48.814;9.318;2022-07-29T11:32:25;27.00;53.50
1337;DHT22;662;48.814;9.318;2022-07-29T11:35:22;26.50;54.80
1337;DHT22;662;48.814;9.318;2022-07-29T11:41:22;25.90;57.10
1337;DHT22;662;48.814;9.318;2022-07-29T11:43:59;25.50;58.20
1337;DHT22;662;48.814;9.318;2022-07-29T11:46:44;25.10;59.50
1337;DHT22;662;48.814;9.318;2022-07-29T11:49:22;24.70;57.60
1337;DHT22;662;48.814;9.318;2022-07-29T11:51:56;24.40;58.70
1337;DHT22;662;48.814;9.318;2022-07-29T11:54:33;24.00;58.40
1337;DHT22;662;48.814;9.318;2022-07-29T11:56:59;23.80;59.10
1337;DHT22;662;48.814;9.318;2022-07-29T11:59:25;23.60;59.80
1337;DHT22;662;48.814;9.318;2022-07-29T12:01:59;23.40;60.60
1337;DHT22;662;48.814;9.318;2022-07-29T12:04:25;23.40;61.10
1337;DHT22;662;48.814;9.318;2022-07-29T12:06:54;23.40;61.60
1337;DHT22;662;48.814;9.318;2022-07-29T12:09:22;23.40;63.20
1337;DHT22;662;48.814;9.318;2022-07-29T12:11:49;23.30;63.90
1337;DHT22;662;48.814;9.318;2022-07-29T12:14:39;23.30;62.80
1337;DHT22;662;48.814;9.318;2022-07-29T12:17:29;23.20;61.50
1337;DHT22;662;48.814;9.318;2022-07-29T12:19:55;23.10;61.50
1337;DHT22;662;48.814;9.318;2022-07-29T12:22:29;23.00;61.40
1337;DHT22;662;48.814;9.318;2022-07-29T12:24:55;22.90;61.70
1337;DHT22;662;48.814;9.318;2022-07-29T12:27:26;22.80;61.70
1337;DHT22;662;48.814;9.318;2022-07-29T12:29:56;22.90;62.40
1337;DHT22;662;48.814;9.318;2022-07-29T12:32:23;23.00;63.30
1337;DHT22;662;48.814;9.318;2022-07-29T12:34:49;23.10;63.20
1337;DHT22;662;48.814;9.318;2022-07-29T12:37:16;23.10;62.30
1337;DHT22;662;48.814;9.318;2022-07-29T12:39:42;23.20;62.30
1337;DHT22;662;48.814;9.318;2022-07-29T12:42:12;23.40;62.20
1337;DHT22;662;48.814;9.318;2022-07-29T12:44:46;23.60;61.80
1337;DHT22;662;48.814;9.318;2022-07-29T12:47:11;24.00;61.40
1337;DHT22;662;48.814;9.318;2022-07-29T12:49:37;24.30;59.60
1337;DHT22;662;48.814;9.318;2022-07-29T12:52:30;24.40;59.70
1337;DHT22;662;48.814;9.318;2022-07-29T12:54:56;24.30;58.90
1337;DHT22;662;48.814;9.318;2022-07-29T12:57:22;24.20;59.80
1337;DHT22;662;48.814;9.318;2022-07-29T13:00:10;24.20;60.60
1337;DHT22;662;48.814;9.318;2022-07-29T13:02:38;24.20;59.90
1337;DHT22;662;48.814;9.318;2022-07-29T13:05:07;24.10;59.50
1337;DHT22;662;48.814;9.318;2022-07-29T13:07:37;24.10;59.50
1337;DHT22;662;48.814;9.318;2022-07-29T13:13:10;24.10;61.00
1337;DHT22;662;48.814;9.318;2022-07-29T13:15:40;24.00;59.90
1337;DHT22;662;48.814;9.318;2022-07-29T13:20:54;23.80;57.60
1337;DHT22;662;48.814;9.318;2022-07-29T13:23:19;23.80;57.70
1337;DHT22;662;48.814;9.318;2022-07-29T13:25:45;23.70;57.70
1337;DHT22;662;48.814;9.318;2022-07-29T13:28:11;23.70;58.80
1337;DHT22;662;48.814;9.318;2022-07-29T13:30:39;23.70;59.30
1337;DHT22;662;48.814;9.318;2022-07-29T13:33:06;23.70;58.40
1337;DHT22;662;48.814;9.318;2022-07-29T13:35:32;23.60;57.20
1337;DHT22;662;48.814;9.318;2022-07-29T13:37:58;23.50;57.20
1337;DHT22;662;48.814;9.318;2022-07-29T13:40:23;23.50;57.80
1337;DHT22;662;48.814;9.318;2022-07-29T13:42:49;23.40;58.40
1337;DHT22;662;48.814;9.318;2022-07-29T13:45:15;23.30;58.70
1337;DHT22;662;48.814;9.318;2022-07-29T13:47:41;23.30;59.80
1337;DHT22;662;48.814;9.318;2022-07-29T13:50:08;23.30;59.90
1337;DHT22;662;48.814;9.318;2022-07-29T13:52:35;23.30;60.80
1337;DHT22;662;48.814;9.318;2022-07-29T13:55:02;23.30;61.90
1337;DHT22;662;48.814;9.318;2022-07-29T13:57:28;23.30;61.90
1337;DHT22;662;48.814;9.318;2022-07-29T13:59:54;23.30;61.90
1337;DHT22;662;48.814;9.318;2022-07-29T14:02:20;23.40;62.60
1337;DHT22;662;48.814;9.318;2022-07-29T14:04:46;23.50;63.30
1337;DHT22;662;48.814;9.318;2022-07-29T14:07:12;23.60;64.00
1337;DHT22;662;48.814;9.318;2022-07-29T14:09:38;23.70;63.90
1337;DHT22;662;48.814;9.318;2022-07-29T14:12:03;23.70;63.20
1337;DHT22;662;48.814;9.318;2022-07-29T14:14:29;23.80;62.90
1337;DHT22;662;48.814;9.318;2022-07-29T14:16:56;24.00;63.70
1337;DHT22;662;48.814;9.318;2022-07-29T14:19:22;24.20;64.10
1337;DHT22;662;48.814;9.318;2022-07-29T14:21:48;24.40;64.50
1337;DHT22;662;48.814;9.318;2022-07-29T14:24:13;24.50;64.40
1337;DHT22;662;48.814;9.318;2022-07-29T14:26:39;24.60;63.50
1337;DHT22;662;48.814;9.318;2022-07-29T14:29:04;24.70;62.30
1337;DHT22;662;48.814;9.318;2022-07-29T14:31:30;24.70;62.20
1337;DHT22;662;48.814;9.318;2022-07-29T14:33:56;24.90;62.80
1337;DHT22;662;48.814;9.318;2022-07-29T14:36:21;25.00;63.60
1337;DHT22;662;48.814;9.318;2022-07-29T14:38:48;25.00;64.20
1337;DHT22;662;48.814;9.318;2022-07-29T14:41:15;25.10;64.20
1337;DHT22;662;48.814;9.318;2022-07-29T14:43:40;25.20;64.20
1337;DHT22;662;48.814;9.318;2022-07-29T14:46:06;25.20;63.70
1337;DHT22;662;48.814;9.318;2022-07-29T14:48:33;25.30;62.10
1337;DHT22;662;48.814;9.318;2022-07-29T14:50:58;25.20;60.70
1337;DHT22;662;48.814;9.318;2022-07-29T14:53:24;25.30;61.10
1337;DHT22;662;48.814;9.318;2022-07-29T14:55:50;25.20;61.20
1337;DHT22;662;48.814;9.318;2022-07-29T14:58:16;25.20;60.20
1337;DHT22;662;48.814;9.318;2022-07-29T15:00:41;25.10;59.60
1337;DHT22;662;48.814;9.318;2022-07-29T15:03:07;25.20;59.90
1337;DHT22;662;48.814;9.318;2022-07-29T15:05:35;25.10;59.80
1337;DHT22;662;48.814;9.318;2022-07-29T15:08:02;25.00;58.80
1337;DHT22;662;48.814;9.318;2022-07-29T15:10:27;24.90;58.80
1337;DHT22;662;48.814;9.318;2022-07-29T15:12:54;25.00;59.50
1337;DHT22;662;48.814;9.318;2022-07-29T15:15:20;25.00;60.20
1337;DHT22;662;48.814;9.318;2022-07-29T15:17:46;25.10;61.10
1337;DHT22;662;48.814;9.318;2022-07-29T15:20:11;25.10;61.60
1337;DHT22;662;48.814;9.318;2022-07-29T15:22:37;25.20;62.20
1337;DHT22;662;48.814;9.318;2022-07-29T15:25:04;25.20;62.50
1337;DHT22;662;48.814;9.318;2022-07-29T15:27:30;25.20;62.70
1337;DHT22;662;48.814;9.318;2022-07-29T15:29:56;25.30;62.90
1337;DHT22;662;48.814;9.318;2022-07-29T15:32:21;25.30;62.70
1337;DHT22;662;48.814;9.318;2022-07-29T15:34:47;25.30;62.50
1337;DHT22;662;48.814;9.318;2022-07-29T15:37:13;25.40;62.40
1337;DHT22;662;48.814;9.318;2022-07-29T15:39:38;25.40;62.30
1337;DHT22;662;48.814;9.318;2022-07-29T15:42:04;25.40;62.30
1337;DHT22;662;48.814;9.318;2022-07-29T15:44:33;25.30;62.20
1337;DHT22;662;48.814;9.318;2022-07-29T15:46:59;25.30;62.10
1337;DHT22;662;48.814;9.318;2022-07-29T15:49:36;25.30;62.30
1337;DHT22;662;48.814;9.318;2022-07-29T15:52:06;25.20;62.10
1337;DHT22;662;48.814;9.318;2022-07-29T15:54:33;25.20;61.90
1337;DHT22;662;48.814;9.318;2022-07-29T15:57:00;25.20;62.20
1337;DHT22;662;48.814;9.318;2022-07-29T15:59:25;25.20;62.70
1337;DHT22;662;48.814;9.318;2022-07-29T16:01:51;25.20;63.10
1337;DHT22;662;48.814;9.318;2022-07-29T16:04:18;25.20;62.90
1337;DHT22;662;48.814;9.318;2022-07-29T16:06:48;25.30;62.90
1337;DHT22;662;48.814;9.318;2022-07-29T16:09:16;25.30;63.10
1337;DHT22;662;48.814;9.318;2022-07-29T16:11:43;25.20;63.30
1337;DHT22;662;48.814;9.318;2022-07-29T16:14:12;25.20;63.30
1337;DHT22;662;48.814;9.318;2022-07-29T16:16:38;25.20;63.60
1337;DHT22;662;48.814;9.318;2022-07-29T16:19:08;25.20;63.50
1337;DHT22;662;48.814;9.318;2022-07-29T16:21:37;25.20;63.50
1337;DHT22;662;48.814;9.318;2022-07-29T16:24:08;25.30;63.40
1337;DHT22;662;48.814;9.318;2022-07-29T16:26:36;25.20;62.30
1337;DHT22;662;48.814;9.318;2022-07-29T16:29:03;25.20;60.40
1337;DHT22;662;48.814;9.318;2022-07-29T16:31:29;25.20;59.60
1337;DHT22;662;48.814;9.318;2022-07-29T16:33:55;25.20;59.40
1337;DHT22;662;48.814;9.318;2022-07-29T16:36:22;25.10;59.00
1337;DHT22;662;48.814;9.318;2022-07-29T16:38:51;25.10;59.00
1337;DHT22;662;48.814;9.318;2022-07-29T16:41:17;25.10;59.00
1337;DHT22;662;48.814;9.318;2022-07-29T16:43:43;25.10;59.00
1337;DHT22;662;48.814;9.318;2022-07-29T16:46:10;25.00;58.90
1337;DHT22;662;48.814;9.318;2022-07-29T16:48:37;25.00;59.00
1337;DHT22;662;48.814;9.318;2022-07-29T16:51:06;25.00;59.00
1337;DHT22;662;48.814;9.318;2022-07-29T16:53:33;25.00;58.70
1337;DHT22;662;48.814;9.318;2022-07-29T16:55:59;24.90;58.60
1337;DHT22;662;48.814;9.318;2022-07-29T16:58:25;24.90;59.00
1337;DHT22;662;48.814;9.318;2022-07-29T17:00:51;24.80;59.30
1337;DHT22;662;48.814;9.318;2022-07-29T17:03:17;24.80;59.50
1337;DHT22;662;48.814;9.318;2022-07-29T17:05:44;24.70;59.60
1337;DHT22;662;48.814;9.318;2022-07-29T17:08:09;24.70;59.40
1337;DHT22;662;48.814;9.318;2022-07-29T17:10:37;24.70;59.60
1337;DHT22;662;48.814;9.318;2022-07-29T17:13:03;24.70;59.70
1337;DHT22;662;48.814;9.318;2022-07-29T17:15:29;24.70;59.80
1337;DHT22;662;48.814;9.318;2022-07-29T17:17:58;24.70;59.80